sensor_id;sensor_type;location;lat;lon;timestamp;P1;durP1;ratioP1;P2;durP2;ratioP2
65469;SDS011;52067;50.710;14.492;2023-06-24T00:01:55;5.30;;;2.85;;
65469;SDS011;52067;50.710;14.492;2023-06-24T00:04:21;3.70;;;2.45;;
65469;SDS011;52067;50.710;14.492;2023-06-24T00:06:46;3.38;;;2.72;;
65469;SDS011;52067;50.710;14.492;2023-06-24T00:09:12;6.70;;;3.17;;
65469;SDS011;52067;50.710;14.492;2023-06-24T00:11:37;3.88;;;2.70;;
65469;SDS011;52067;50.710;14.492;2023-06-24T00:14:02;4.05;;;3.10;;
65469;SDS011;52067;50.710;14.492;2023-06-24T00:16:28;3.97;;;2.70;;
65469;SDS011;52067;50.710;14.492;2023-06-24T00:18:56;4.45;;;3.28;;
65469;SDS011;52067;50.710;14.492;2023-06-24T00:21:23;4.45;;;2.97;;
65469;SDS011;52067;50.710;14.492;2023-06-24T00:23:54;8.75;;;3.13;;
65469;SDS011;52067;50.710;14.492;2023-06-24T00:26:24;4.60;;;3.05;;
65469;SDS011;52067;50.710;14.492;2023-06-24T00:28:50;4.07;;;2.90;;
65469;SDS011;52067;50.710;14.492;2023-06-24T00:31:15;5.07;;;3.10;;
65469;SDS011;52067;50.710;14.492;2023-06-24T00:33:41;5.00;;;3.25;;
65469;SDS011;52067;50.710;14.492;2023-06-24T00:36:07;4.40;;;3.10;;
65469;SDS011;52067;50.710;14.492;2023-06-24T00:38:37;3.85;;;2.90;;
65469;SDS011;52067;50.710;14.492;2023-06-24T00:41:03;4.22;;;3.28;;
65469;SDS011;52067;50.710;14.492;2023-06-24T00:43:29;5.00;;;3.90;;
65469;SDS011;52067;50.710;14.492;2023-06-24T00:45:55;5.20;;;3.55;;
65469;SDS011;52067;50.710;14.492;2023-06-24T00:48:21;5.07;;;3.53;;
65469;SDS011;52067;50.710;14.492;2023-06-24T00:50:47;5.50;;;3.95;;
65469;SDS011;52067;50.710;14.492;2023-06-24T00:53:14;4.63;;;3.58;;
65469;SDS011;52067;50.710;14.492;2023-06-24T00:55:44;4.30;;;3.50;;
65469;SDS011;52067;50.710;14.492;2023-06-24T00:58:10;5.45;;;3.70;;
65469;SDS011;52067;50.710;14.492;2023-06-24T01:00:41;10.18;;;3.83;;
65469;SDS011;52067;50.710;14.492;2023-06-24T01:03:08;4.30;;;3.60;;
65469;SDS011;52067;50.710;14.492;2023-06-24T01:05:39;7.82;;;4.50;;
65469;SDS011;52067;50.710;14.492;2023-06-24T01:08:10;5.25;;;4.07;;
65469;SDS011;52067;50.710;14.492;2023-06-24T01:10:40;5.93;;;4.43;;
65469;SDS011;52067;50.710;14.492;2023-06-24T01:13:06;5.72;;;4.50;;
65469;SDS011;52067;50.710;14.492;2023-06-24T01:15:32;5.70;;;4.70;;
65469;SDS011;52067;50.710;14.492;2023-06-24T01:18:11;7.60;;;5.70;;
65469;SDS011;52067;50.710;14.492;2023-06-24T01:31:44;6.85;;;5.45;;
65469;SDS011;52067;50.710;14.492;2023-06-24T01:34:48;8.57;;;5.43;;
65469;SDS011;52067;50.710;14.492;2023-06-24T01:37:39;8.35;;;5.75;;
65469;SDS011;52067;50.710;14.492;2023-06-24T01:40:15;8.00;;;6.03;;
65469;SDS011;52067;50.710;14.492;2023-06-24T01:42:43;10.37;;;6.37;;
65469;SDS011;52067;50.710;14.492;2023-06-24T01:45:12;10.55;;;7.00;;
65469;SDS011;52067;50.710;14.492;2023-06-24T01:47:43;9.90;;;7.30;;
65469;SDS011;52067;50.710;14.492;2023-06-24T01:50:11;12.38;;;8.13;;
65469;SDS011;52067;50.710;14.492;2023-06-24T01:52:39;13.40;;;7.75;;
65469;SDS011;52067;50.710;14.492;2023-06-24T01:55:08;11.77;;;8.30;;
65469;SDS011;52067;50.710;14.492;2023-06-24T01:57:35;11.73;;;8.35;;
65469;SDS011;52067;50.710;14.492;2023-06-24T02:00:02;11.80;;;8.25;;
65469;SDS011;52067;50.710;14.492;2023-06-24T02:02:31;11.48;;;8.07;;
65469;SDS011;52067;50.710;14.492;2023-06-24T02:04:57;10.90;;;8.07;;
65469;SDS011;52067;50.710;14.492;2023-06-24T02:07:26;11.38;;;7.97;;
65469;SDS011;52067;50.710;14.492;2023-06-24T02:09:54;13.38;;;8.43;;
65469;SDS011;52067;50.710;14.492;2023-06-24T02:12:20;13.55;;;8.55;;
65469;SDS011;52067;50.710;14.492;2023-06-24T02:14:47;14.35;;;8.75;;
65469;SDS011;52067;50.710;14.492;2023-06-24T02:17:13;12.88;;;8.50;;
65469;SDS011;52067;50.710;14.492;2023-06-24T02:19:39;13.75;;;7.93;;
65469;SDS011;52067;50.710;14.492;2023-06-24T02:22:06;13.05;;;9.00;;
65469;SDS011;52067;50.710;14.492;2023-06-24T02:24:34;13.27;;;9.50;;
65469;SDS011;52067;50.710;14.492;2023-06-24T02:27:02;17.40;;;9.45;;
65469;SDS011;52067;50.710;14.492;2023-06-24T02:29:29;17.55;;;10.52;;
65469;SDS011;52067;50.710;14.492;2023-06-24T02:31:55;15.00;;;10.38;;
65469;SDS011;52067;50.710;14.492;2023-06-24T02:34:22;15.20;;;9.98;;
65469;SDS011;52067;50.710;14.492;2023-06-24T02:36:49;18.25;;;11.05;;
65469;SDS011;52067;50.710;14.492;2023-06-24T02:39:14;16.88;;;11.23;;
65469;SDS011;52067;50.710;14.492;2023-06-24T02:41:40;15.63;;;10.63;;
65469;SDS011;52067;50.710;14.492;2023-06-24T02:44:05;18.15;;;10.02;;
65469;SDS011;52067;50.710;14.492;2023-06-24T02:46:30;14.02;;;9.13;;
65469;SDS011;52067;50.710;14.492;2023-06-24T02:48:59;14.82;;;10.00;;
65469;SDS011;52067;50.710;14.492;2023-06-24T02:51:25;22.25;;;10.65;;
65469;SDS011;52067;50.710;14.492;2023-06-24T02:53:51;23.23;;;11.25;;
65469;SDS011;52067;50.710;14.492;2023-06-24T02:56:17;16.55;;;10.70;;
65469;SDS011;52067;50.710;14.492;2023-06-24T02:58:46;17.33;;;10.70;;
65469;SDS011;52067;50.710;14.492;2023-06-24T03:01:12;17.85;;;10.20;;
65469;SDS011;52067;50.710;14.492;2023-06-24T03:03:38;15.90;;;9.45;;
65469;SDS011;52067;50.710;14.492;2023-06-24T03:06:06;16.60;;;10.68;;
65469;SDS011;52067;50.710;14.492;2023-06-24T03:08:32;18.05;;;10.73;;
65469;SDS011;52067;50.710;14.492;2023-06-24T03:10:57;18.85;;;10.85;;
65469;SDS011;52067;50.710;14.492;2023-06-24T03:13:23;18.25;;;10.82;;
65469;SDS011;52067;50.710;14.492;2023-06-24T03:15:49;18.27;;;10.90;;
65469;SDS011;52067;50.710;14.492;2023-06-24T03:18:15;19.63;;;11.73;;
65469;SDS011;52067;50.710;14.492;2023-06-24T03:20:41;16.98;;;9.82;;
65469;SDS011;52067;50.710;14.492;2023-06-24T03:23:06;16.20;;;9.98;;
65469;SDS011;52067;50.710;14.492;2023-06-24T03:25:32;17.90;;;10.57;;
65469;SDS011;52067;50.710;14.492;2023-06-24T03:27:58;21.00;;;10.70;;
65469;SDS011;52067;50.710;14.492;2023-06-24T03:30:26;22.27;;;11.60;;
65469;SDS011;52067;50.710;14.492;2023-06-24T03:32:54;14.43;;;10.23;;
65469;SDS011;52067;50.710;14.492;2023-06-24T03:35:19;20.52;;;10.93;;
65469;SDS011;52067;50.710;14.492;2023-06-24T03:37:45;17.65;;;10.35;;
65469;SDS011;52067;50.710;14.492;2023-06-24T03:40:10;17.48;;;10.65;;
65469;SDS011;52067;50.710;14.492;2023-06-24T03:42:36;16.45;;;10.25;;
65469;SDS011;52067;50.710;14.492;2023-06-24T03:45:02;16.50;;;10.48;;
65469;SDS011;52067;50.710;14.492;2023-06-24T03:47:28;19.77;;;11.13;;
65469;SDS011;52067;50.710;14.492;2023-06-24T03:49:54;19.80;;;10.63;;
65469;SDS011;52067;50.710;14.492;2023-06-24T03:52:19;16.88;;;10.63;;
65469;SDS011;52067;50.710;14.492;2023-06-24T03:54:45;17.35;;;11.05;;
65469;SDS011;52067;50.710;14.492;2023-06-24T03:57:12;16.65;;;10.25;;
65469;SDS011;52067;50.710;14.492;2023-06-24T03:59:37;18.40;;;10.40;;
65469;SDS011;52067;50.710;14.492;2023-06-24T04:02:03;17.90;;;10.80;;
65469;SDS011;52067;50.710;14.492;2023-06-24T04:04:32;15.85;;;10.30;;
65469;SDS011;52067;50.710;14.492;2023-06-24T04:06:58;18.98;;;10.32;;
65469;SDS011;52067;50.710;14.492;2023-06-24T04:09:24;17.80;;;9.60;;
65469;SDS011;52067;50.710;14.492;2023-06-24T04:11:49;15.05;;;9.85;;
65469;SDS011;52067;50.710;14.492;2023-06-24T04:14:14;15.90;;;10.40;;
65469;SDS011;52067;50.710;14.492;2023-06-24T04:16:40;22.38;;;10.45;;
65469;SDS011;52067;50.710;14.492;2023-06-24T04:19:05;16.65;;;10.80;;
65469;SDS011;52067;50.710;14.492;2023-06-24T04:21:31;16.00;;;10.68;;
65469;SDS011;52067;50.710;14.492;2023-06-24T04:23:56;20.25;;;10.35;;
65469;SDS011;52067;50.710;14.492;2023-06-24T04:26:21;18.48;;;10.75;;
65469;SDS011;52067;50.710;14.492;2023-06-24T04:28:47;16.88;;;10.48;;
65469;SDS011;52067;50.710;14.492;2023-06-24T04:31:12;14.15;;;10.15;;
65469;SDS011;52067;50.710;14.492;2023-06-24T04:33:37;19.88;;;9.98;;
65469;SDS011;52067;50.710;14.492;2023-06-24T04:36:03;15.13;;;9.48;;
65469;SDS011;52067;50.710;14.492;2023-06-24T04:38:29;16.40;;;10.20;;
65469;SDS011;52067;50.710;14.492;2023-06-24T04:40:54;14.80;;;10.27;;
65469;SDS011;52067;50.710;14.492;2023-06-24T04:43:20;14.57;;;9.88;;
65469;SDS011;52067;50.710;14.492;2023-06-24T04:45:45;15.15;;;10.85;;
65469;SDS011;52067;50.710;14.492;2023-06-24T04:48:10;15.80;;;10.00;;
65469;SDS011;52067;50.710;14.492;2023-06-24T04:50:36;17.10;;;10.13;;
65469;SDS011;52067;50.710;14.492;2023-06-24T04:53:01;18.55;;;11.48;;
65469;SDS011;52067;50.710;14.492;2023-06-24T04:55:27;16.15;;;10.88;;
65469;SDS011;52067;50.710;14.492;2023-06-24T04:57:54;18.55;;;10.75;;
65469;SDS011;52067;50.710;14.492;2023-06-24T05:00:20;19.08;;;10.75;;
65469;SDS011;52067;50.710;14.492;2023-06-24T05:02:48;16.35;;;10.65;;
65469;SDS011;52067;50.710;14.492;2023-06-24T05:05:13;19.35;;;10.70;;
65469;SDS011;52067;50.710;14.492;2023-06-24T05:07:39;16.45;;;10.13;;
65469;SDS011;52067;50.710;14.492;2023-06-24T05:10:04;17.52;;;9.52;;
65469;SDS011;52067;50.710;14.492;2023-06-24T05:12:30;21.42;;;10.93;;
65469;SDS011;52067;50.710;14.492;2023-06-24T05:14:55;20.02;;;10.57;;
65469;SDS011;52067;50.710;14.492;2023-06-24T05:17:21;18.75;;;10.93;;
65469;SDS011;52067;50.710;14.492;2023-06-24T05:19:46;17.77;;;11.05;;
65469;SDS011;52067;50.710;14.492;2023-06-24T05:22:12;17.80;;;11.93;;
65469;SDS011;52067;50.710;14.492;2023-06-24T05:24:37;17.17;;;11.13;;
65469;SDS011;52067;50.710;14.492;2023-06-24T05:27:07;23.83;;;12.68;;
65469;SDS011;52067;50.710;14.492;2023-06-24T05:29:33;17.15;;;11.07;;
65469;SDS011;52067;50.710;14.492;2023-06-24T05:31:59;18.15;;;11.50;;
65469;SDS011;52067;50.710;14.492;2023-06-24T05:34:26;22.60;;;12.02;;
65469;SDS011;52067;50.710;14.492;2023-06-24T05:36:52;26.38;;;13.02;;
65469;SDS011;52067;50.710;14.492;2023-06-24T05:39:17;22.27;;;11.70;;
65469;SDS011;52067;50.710;14.492;2023-06-24T05:41:43;18.30;;;11.90;;
65469;SDS011;52067;50.710;14.492;2023-06-24T05:44:09;18.73;;;11.63;;
65469;SDS011;52067;50.710;14.492;2023-06-24T05:46:37;21.38;;;12.65;;
65469;SDS011;52067;50.710;14.492;2023-06-24T05:49:03;22.45;;;12.85;;
65469;SDS011;52067;50.710;14.492;2023-06-24T05:51:29;21.80;;;11.80;;
65469;SDS011;52067;50.710;14.492;2023-06-24T05:53:54;21.90;;;12.73;;
65469;SDS011;52067;50.710;14.492;2023-06-24T05:56:20;18.25;;;12.23;;
65469;SDS011;52067;50.710;14.492;2023-06-24T05:58:47;23.10;;;13.20;;
65469;SDS011;52067;50.710;14.492;2023-06-24T06:01:13;19.88;;;13.23;;
65469;SDS011;52067;50.710;14.492;2023-06-24T06:03:38;24.88;;;13.43;;
65469;SDS011;52067;50.710;14.492;2023-06-24T06:06:03;25.65;;;12.90;;
65469;SDS011;52067;50.710;14.492;2023-06-24T06:08:29;20.27;;;13.05;;
65469;SDS011;52067;50.710;14.492;2023-06-24T06:10:54;23.05;;;13.48;;
65469;SDS011;52067;50.710;14.492;2023-06-24T06:13:20;21.35;;;13.27;;
65469;SDS011;52067;50.710;14.492;2023-06-24T06:15:45;19.98;;;13.15;;
65469;SDS011;52067;50.710;14.492;2023-06-24T06:18:11;21.52;;;12.00;;
65469;SDS011;52067;50.710;14.492;2023-06-24T06:20:37;20.40;;;12.35;;
65469;SDS011;52067;50.710;14.492;2023-06-24T06:23:02;18.73;;;12.55;;
65469;SDS011;52067;50.710;14.492;2023-06-24T06:25:28;16.45;;;12.05;;
65469;SDS011;52067;50.710;14.492;2023-06-24T06:27:53;17.70;;;12.02;;
65469;SDS011;52067;50.710;14.492;2023-06-24T06:30:19;18.38;;;12.13;;
65469;SDS011;52067;50.710;14.492;2023-06-24T06:32:44;18.92;;;10.77;;
65469;SDS011;52067;50.710;14.492;2023-06-24T06:35:09;18.70;;;11.20;;
65469;SDS011;52067;50.710;14.492;2023-06-24T06:37:35;18.02;;;11.68;;
65469;SDS011;52067;50.710;14.492;2023-06-24T06:40:00;24.20;;;12.25;;
65469;SDS011;52067;50.710;14.492;2023-06-24T06:42:26;19.65;;;12.15;;
65469;SDS011;52067;50.710;14.492;2023-06-24T06:44:54;18.85;;;12.45;;
65469;SDS011;52067;50.710;14.492;2023-06-24T06:47:19;21.85;;;12.65;;
65469;SDS011;52067;50.710;14.492;2023-06-24T06:49:44;21.77;;;13.07;;
65469;SDS011;52067;50.710;14.492;2023-06-24T06:52:10;18.50;;;10.68;;
65469;SDS011;52067;50.710;14.492;2023-06-24T06:54:35;20.70;;;12.80;;
65469;SDS011;52067;50.710;14.492;2023-06-24T06:57:04;20.92;;;13.68;;
65469;SDS011;52067;50.710;14.492;2023-06-24T06:59:32;18.63;;;13.02;;
65469;SDS011;52067;50.710;14.492;2023-06-24T07:01:58;21.95;;;13.20;;
65469;SDS011;52067;50.710;14.492;2023-06-24T07:04:23;21.42;;;13.48;;
65469;SDS011;52067;50.710;14.492;2023-06-24T07:06:49;20.25;;;14.10;;
65469;SDS011;52067;50.710;14.492;2023-06-24T07:09:14;23.00;;;13.23;;
65469;SDS011;52067;50.710;14.492;2023-06-24T07:11:40;21.33;;;13.85;;
65469;SDS011;52067;50.710;14.492;2023-06-24T07:14:06;22.58;;;13.60;;
65469;SDS011;52067;50.710;14.492;2023-06-24T07:16:32;19.38;;;12.95;;
65469;SDS011;52067;50.710;14.492;2023-06-24T07:18:57;17.35;;;12.07;;
65469;SDS011;52067;50.710;14.492;2023-06-24T07:21:23;18.85;;;12.38;;
65469;SDS011;52067;50.710;14.492;2023-06-24T07:23:48;19.80;;;11.23;;
65469;SDS011;52067;50.710;14.492;2023-06-24T07:26:13;16.67;;;11.30;;
65469;SDS011;52067;50.710;14.492;2023-06-24T07:28:39;16.80;;;11.35;;
65469;SDS011;52067;50.710;14.492;2023-06-24T07:31:04;18.77;;;11.73;;
65469;SDS011;52067;50.710;14.492;2023-06-24T07:33:31;19.67;;;11.35;;
65469;SDS011;52067;50.710;14.492;2023-06-24T07:35:57;16.65;;;10.57;;
65469;SDS011;52067;50.710;14.492;2023-06-24T07:38:22;18.95;;;10.27;;
65469;SDS011;52067;50.710;14.492;2023-06-24T07:40:48;13.63;;;9.48;;
65469;SDS011;52067;50.710;14.492;2023-06-24T07:43:13;14.48;;;9.52;;
65469;SDS011;52067;50.710;14.492;2023-06-24T07:45:39;13.70;;;9.10;;
65469;SDS011;52067;50.710;14.492;2023-06-24T07:48:04;14.00;;;9.05;;
65469;SDS011;52067;50.710;14.492;2023-06-24T07:50:30;14.20;;;9.30;;
65469;SDS011;52067;50.710;14.492;2023-06-24T07:52:56;13.40;;;9.02;;
65469;SDS011;52067;50.710;14.492;2023-06-24T07:55:22;15.13;;;9.57;;
65469;SDS011;52067;50.710;14.492;2023-06-24T07:57:47;14.65;;;9.30;;
65469;SDS011;52067;50.710;14.492;2023-06-24T08:00:13;14.77;;;9.63;;
65469;SDS011;52067;50.710;14.492;2023-06-24T08:02:40;13.55;;;8.93;;
65469;SDS011;52067;50.710;14.492;2023-06-24T08:05:06;16.45;;;9.32;;
65469;SDS011;52067;50.710;14.492;2023-06-24T08:07:32;14.75;;;8.77;;
65469;SDS011;52067;50.710;14.492;2023-06-24T08:09:57;13.52;;;8.75;;
65469;SDS011;52067;50.710;14.492;2023-06-24T08:12:23;15.20;;;8.68;;
65469;SDS011;52067;50.710;14.492;2023-06-24T08:14:48;16.83;;;8.63;;
65469;SDS011;52067;50.710;14.492;2023-06-24T08:17:13;12.27;;;7.55;;
65469;SDS011;52067;50.710;14.492;2023-06-24T08:19:39;25.15;;;9.25;;
65469;SDS011;52067;50.710;14.492;2023-06-24T08:22:04;11.38;;;8.07;;
65469;SDS011;52067;50.710;14.492;2023-06-24T08:24:30;14.18;;;8.50;;
65469;SDS011;52067;50.710;14.492;2023-06-24T08:26:56;17.15;;;7.50;;
65469;SDS011;52067;50.710;14.492;2023-06-24T08:29:21;15.90;;;8.50;;
65469;SDS011;52067;50.710;14.492;2023-06-24T08:31:47;12.85;;;8.05;;
65469;SDS011;52067;50.710;14.492;2023-06-24T08:34:12;13.02;;;9.05;;
65469;SDS011;52067;50.710;14.492;2023-06-24T08:36:38;14.98;;;9.00;;
65469;SDS011;52067;50.710;14.492;2023-06-24T08:39:03;13.70;;;8.65;;
65469;SDS011;52067;50.710;14.492;2023-06-24T08:41:28;14.52;;;9.68;;
65469;SDS011;52067;50.710;14.492;2023-06-24T08:43:54;18.52;;;8.45;;
65469;SDS011;52067;50.710;14.492;2023-06-24T08:46:20;12.50;;;8.60;;
65469;SDS011;52067;50.710;14.492;2023-06-24T08:48:46;14.15;;;8.40;;
65469;SDS011;52067;50.710;14.492;2023-06-24T08:51:13;16.15;;;9.27;;
65469;SDS011;52067;50.710;14.492;2023-06-24T08:53:43;19.33;;;9.93;;
65469;SDS011;52067;50.710;14.492;2023-06-24T08:56:09;13.75;;;9.85;;
65469;SDS011;52067;50.710;14.492;2023-06-24T08:58:35;14.13;;;7.95;;
65469;SDS011;52067;50.710;14.492;2023-06-24T09:01:01;13.50;;;9.35;;
65469;SDS011;52067;50.710;14.492;2023-06-24T09:03:27;14.32;;;9.85;;
65469;SDS011;52067;50.710;14.492;2023-06-24T09:05:53;14.32;;;9.60;;
65469;SDS011;52067;50.710;14.492;2023-06-24T09:08:18;16.15;;;10.07;;
65469;SDS011;52067;50.710;14.492;2023-06-24T09:10:46;14.57;;;9.25;;
65469;SDS011;52067;50.710;14.492;2023-06-24T09:13:18;18.00;;;11.05;;
65469;SDS011;52067;50.710;14.492;2023-06-24T09:15:44;13.98;;;9.75;;
65469;SDS011;52067;50.710;14.492;2023-06-24T09:18:09;15.20;;;10.00;;
65469;SDS011;52067;50.710;14.492;2023-06-24T09:20:35;18.60;;;10.07;;
65469;SDS011;52067;50.710;14.492;2023-06-24T09:23:09;17.90;;;9.90;;
65469;SDS011;52067;50.710;14.492;2023-06-24T09:25:34;14.88;;;9.75;;
65469;SDS011;52067;50.710;14.492;2023-06-24T09:28:00;16.23;;;9.45;;
65469;SDS011;52067;50.710;14.492;2023-06-24T09:30:26;14.65;;;8.80;;
65469;SDS011;52067;50.710;14.492;2023-06-24T09:32:52;16.58;;;9.13;;
65469;SDS011;52067;50.710;14.492;2023-06-24T09:35:19;39.72;;;13.13;;
65469;SDS011;52067;50.710;14.492;2023-06-24T09:37:56;23.55;;;10.75;;
65469;SDS011;52067;50.710;14.492;2023-06-24T09:40:22;13.65;;;9.00;;
65469;SDS011;52067;50.710;14.492;2023-06-24T09:45:18;13.65;;;8.27;;
65469;SDS011;52067;50.710;14.492;2023-06-24T09:47:45;13.18;;;7.80;;
65469;SDS011;52067;50.710;14.492;2023-06-24T09:50:10;11.20;;;7.47;;
65469;SDS011;52067;50.710;14.492;2023-06-24T09:52:35;11.57;;;7.43;;
65469;SDS011;52067;50.710;14.492;2023-06-24T09:55:01;17.17;;;9.07;;
65469;SDS011;52067;50.710;14.492;2023-06-24T09:57:28;37.33;;;12.73;;
65469;SDS011;52067;50.710;14.492;2023-06-24T09:59:56;16.45;;;9.20;;
65469;SDS011;52067;50.710;14.492;2023-06-24T10:02:23;21.52;;;10.50;;
65469;SDS011;52067;50.710;14.492;2023-06-24T10:04:49;15.75;;;9.35;;
65469;SDS011;52067;50.710;14.492;2023-06-24T10:07:16;12.07;;;8.63;;
65469;SDS011;52067;50.710;14.492;2023-06-24T10:09:42;13.70;;;8.80;;
65469;SDS011;52067;50.710;14.492;2023-06-24T10:12:08;15.00;;;9.07;;
65469;SDS011;52067;50.710;14.492;2023-06-24T10:14:34;12.05;;;8.57;;
65469;SDS011;52067;50.710;14.492;2023-06-24T10:17:00;11.07;;;8.50;;
65469;SDS011;52067;50.710;14.492;2023-06-24T10:19:39;12.40;;;8.32;;
65469;SDS011;52067;50.710;14.492;2023-06-24T10:22:08;13.65;;;8.75;;
65469;SDS011;52067;50.710;14.492;2023-06-24T10:24:40;13.30;;;8.75;;
65469;SDS011;52067;50.710;14.492;2023-06-24T10:28:07;14.27;;;9.00;;
65469;SDS011;52067;50.710;14.492;2023-06-24T10:30:05;15.60;;;8.63;;
65469;SDS011;52067;50.710;14.492;2023-06-24T10:32:39;11.40;;;8.02;;
65469;SDS011;52067;50.710;14.492;2023-06-24T10:35:07;14.43;;;8.55;;
65469;SDS011;52067;50.710;14.492;2023-06-24T10:37:55;14.65;;;8.60;;
65469;SDS011;52067;50.710;14.492;2023-06-24T10:40:34;12.60;;;8.30;;
65469;SDS011;52067;50.710;14.492;2023-06-24T10:45:51;11.57;;;7.97;;
65469;SDS011;52067;50.710;14.492;2023-06-24T10:48:20;12.27;;;7.47;;
65469;SDS011;52067;50.710;14.492;2023-06-24T10:50:46;9.57;;;7.18;;
65469;SDS011;52067;50.710;14.492;2023-06-24T10:53:12;11.60;;;8.20;;
65469;SDS011;52067;50.710;14.492;2023-06-24T10:55:38;11.52;;;7.50;;
65469;SDS011;52067;50.710;14.492;2023-06-24T10:58:11;8.35;;;6.07;;
65469;SDS011;52067;50.710;14.492;2023-06-24T11:00:38;12.40;;;7.00;;
65469;SDS011;52067;50.710;14.492;2023-06-24T11:03:11;7.07;;;5.90;;
65469;SDS011;52067;50.710;14.492;2023-06-24T11:05:46;10.68;;;6.93;;
65469;SDS011;52067;50.710;14.492;2023-06-24T11:08:13;9.45;;;6.20;;
65469;SDS011;52067;50.710;14.492;2023-06-24T11:10:45;12.80;;;6.07;;
65469;SDS011;52067;50.710;14.492;2023-06-24T11:13:12;7.75;;;5.70;;
65469;SDS011;52067;50.710;14.492;2023-06-24T11:15:38;9.07;;;5.85;;
65469;SDS011;52067;50.710;14.492;2023-06-24T11:18:07;7.85;;;5.30;;
65469;SDS011;52067;50.710;14.492;2023-06-24T11:20:35;5.70;;;4.78;;
65469;SDS011;52067;50.710;14.492;2023-06-24T11:23:01;6.30;;;4.90;;
65469;SDS011;52067;50.710;14.492;2023-06-24T11:25:26;7.13;;;4.53;;
65469;SDS011;52067;50.710;14.492;2023-06-24T11:27:52;9.07;;;4.90;;
65469;SDS011;52067;50.710;14.492;2023-06-24T11:30:20;6.10;;;4.88;;
65469;SDS011;52067;50.710;14.492;2023-06-24T11:32:46;10.27;;;5.47;;
65469;SDS011;52067;50.710;14.492;2023-06-24T11:35:13;8.70;;;5.50;;
65469;SDS011;52067;50.710;14.492;2023-06-24T11:37:46;11.60;;;5.45;;
65469;SDS011;52067;50.710;14.492;2023-06-24T11:40:13;6.10;;;4.55;;
65469;SDS011;52067;50.710;14.492;2023-06-24T11:42:41;13.85;;;5.43;;
65469;SDS011;52067;50.710;14.492;2023-06-24T11:45:10;10.20;;;4.75;;
65469;SDS011;52067;50.710;14.492;2023-06-24T11:47:37;15.60;;;4.47;;
65469;SDS011;52067;50.710;14.492;2023-06-24T11:50:04;5.03;;;4.30;;
65469;SDS011;52067;50.710;14.492;2023-06-24T11:57:53;8.85;;;4.20;;
65469;SDS011;52067;50.710;14.492;2023-06-24T12:00:22;7.78;;;4.18;;
65469;SDS011;52067;50.710;14.492;2023-06-24T12:02:52;7.80;;;4.03;;
65469;SDS011;52067;50.710;14.492;2023-06-24T12:05:28;6.30;;;3.95;;
65469;SDS011;52067;50.710;14.492;2023-06-24T12:08:05;9.45;;;4.18;;
65469;SDS011;52067;50.710;14.492;2023-06-24T12:10:35;6.57;;;3.90;;
65469;SDS011;52067;50.710;14.492;2023-06-24T12:13:02;5.35;;;3.85;;
65469;SDS011;52067;50.710;14.492;2023-06-24T12:15:29;6.18;;;3.83;;
65469;SDS011;52067;50.710;14.492;2023-06-24T12:17:55;4.72;;;3.63;;
65469;SDS011;52067;50.710;14.492;2023-06-24T12:20:20;5.93;;;3.80;;
65469;SDS011;52067;50.710;14.492;2023-06-24T12:22:46;4.90;;;3.90;;
65469;SDS011;52067;50.710;14.492;2023-06-24T12:25:13;5.70;;;3.95;;
65469;SDS011;52067;50.710;14.492;2023-06-24T12:27:38;7.25;;;4.00;;
65469;SDS011;52067;50.710;14.492;2023-06-24T12:30:05;5.60;;;3.58;;
65469;SDS011;52067;50.710;14.492;2023-06-24T12:32:31;7.53;;;4.03;;
65469;SDS011;52067;50.710;14.492;2023-06-24T12:34:57;6.55;;;4.15;;
65469;SDS011;52067;50.710;14.492;2023-06-24T12:37:22;11.73;;;3.92;;
65469;SDS011;52067;50.710;14.492;2023-06-24T12:39:47;7.72;;;3.83;;
65469;SDS011;52067;50.710;14.492;2023-06-24T12:42:15;9.30;;;3.55;;
65469;SDS011;52067;50.710;14.492;2023-06-24T12:44:41;10.65;;;3.75;;
65469;SDS011;52067;50.710;14.492;2023-06-24T12:47:06;6.80;;;3.80;;
65469;SDS011;52067;50.710;14.492;2023-06-24T12:49:32;7.13;;;3.88;;
65469;SDS011;52067;50.710;14.492;2023-06-24T12:51:57;5.65;;;3.70;;
65469;SDS011;52067;50.710;14.492;2023-06-24T12:54:23;5.43;;;3.47;;
65469;SDS011;52067;50.710;14.492;2023-06-24T12:56:48;6.57;;;3.78;;
65469;SDS011;52067;50.710;14.492;2023-06-24T12:59:13;6.15;;;3.58;;
65469;SDS011;52067;50.710;14.492;2023-06-24T13:01:39;4.95;;;3.60;;
65469;SDS011;52067;50.710;14.492;2023-06-24T13:04:04;9.07;;;4.05;;
65469;SDS011;52067;50.710;14.492;2023-06-24T13:06:30;7.70;;;4.40;;
65469;SDS011;52067;50.710;14.492;2023-06-24T13:08:55;6.18;;;3.88;;
65469;SDS011;52067;50.710;14.492;2023-06-24T13:11:21;6.63;;;3.95;;
65469;SDS011;52067;50.710;14.492;2023-06-24T13:13:46;4.65;;;3.60;;
65469;SDS011;52067;50.710;14.492;2023-06-24T13:16:11;7.35;;;3.92;;
65469;SDS011;52067;50.710;14.492;2023-06-24T13:18:37;9.07;;;4.03;;
65469;SDS011;52067;50.710;14.492;2023-06-24T13:21:02;6.15;;;3.97;;
65469;SDS011;52067;50.710;14.492;2023-06-24T13:23:27;5.10;;;3.80;;
65469;SDS011;52067;50.710;14.492;2023-06-24T13:25:53;6.72;;;4.20;;
65469;SDS011;52067;50.710;14.492;2023-06-24T13:28:18;5.25;;;4.05;;
65469;SDS011;52067;50.710;14.492;2023-06-24T13:30:44;7.97;;;4.50;;
65469;SDS011;52067;50.710;14.492;2023-06-24T13:33:09;8.15;;;4.00;;
65469;SDS011;52067;50.710;14.492;2023-06-24T13:35:34;6.72;;;4.25;;
65469;SDS011;52067;50.710;14.492;2023-06-24T13:38:00;6.60;;;4.22;;
65469;SDS011;52067;50.710;14.492;2023-06-24T13:40:26;5.28;;;4.20;;
65469;SDS011;52067;50.710;14.492;2023-06-24T13:42:51;7.28;;;4.22;;
65469;SDS011;52067;50.710;14.492;2023-06-24T13:45:16;6.10;;;4.75;;
65469;SDS011;52067;50.710;14.492;2023-06-24T13:47:42;6.95;;;4.80;;
65469;SDS011;52067;50.710;14.492;2023-06-24T13:50:08;8.27;;;4.95;;
65469;SDS011;52067;50.710;14.492;2023-06-24T13:52:34;8.05;;;5.10;;
65469;SDS011;52067;50.710;14.492;2023-06-24T13:54:59;6.38;;;4.97;;
65469;SDS011;52067;50.710;14.492;2023-06-24T13:57:25;8.55;;;5.30;;
65469;SDS011;52067;50.710;14.492;2023-06-24T13:59:50;6.75;;;4.95;;
65469;SDS011;52067;50.710;14.492;2023-06-24T14:02:16;8.45;;;5.07;;
65469;SDS011;52067;50.710;14.492;2023-06-24T14:04:41;7.53;;;4.80;;
65469;SDS011;52067;50.710;14.492;2023-06-24T14:07:07;7.13;;;4.75;;
65469;SDS011;52067;50.710;14.492;2023-06-24T14:09:33;7.70;;;5.28;;
65469;SDS011;52067;50.710;14.492;2023-06-24T14:11:59;6.60;;;5.05;;
65469;SDS011;52067;50.710;14.492;2023-06-24T14:14:24;6.85;;;4.80;;
65469;SDS011;52067;50.710;14.492;2023-06-24T14:16:50;6.50;;;5.00;;
65469;SDS011;52067;50.710;14.492;2023-06-24T14:19:15;8.18;;;5.15;;
65469;SDS011;52067;50.710;14.492;2023-06-24T14:21:41;6.03;;;4.40;;
65469;SDS011;52067;50.710;14.492;2023-06-24T14:24:06;5.93;;;4.50;;
65469;SDS011;52067;50.710;14.492;2023-06-24T14:26:35;7.22;;;4.55;;
65469;SDS011;52067;50.710;14.492;2023-06-24T14:29:00;6.20;;;4.32;;
65469;SDS011;52067;50.710;14.492;2023-06-24T14:31:28;6.03;;;4.47;;
65469;SDS011;52067;50.710;14.492;2023-06-24T14:33:53;9.95;;;4.10;;
65469;SDS011;52067;50.710;14.492;2023-06-24T14:36:19;9.63;;;4.50;;
65469;SDS011;52067;50.710;14.492;2023-06-24T14:38:44;5.28;;;4.07;;
65469;SDS011;52067;50.710;14.492;2023-06-24T14:41:10;5.38;;;3.80;;